Plato — 8PRX — position and weather

sailwx.info

Track history (hours):
 
Tides and Currents Weather Stations Pressure Air Temp Water Temp Dewpoint Dewpoint Depression Visibility Wind Speed Wind Dir Waves Ship Positions

Plato

Last reported at 2016-Jun-29 03:33 UTC. Time now 2016-Jun-29 03:50 UTC.
Position N 53°38' W 000°11'.

Length 89 m; draft 3.1 m.

Type: Cargo ship. MMSI: 314189000.

Date/timePositionNaut miles runAvg speedWind from/ knotsBaromVisibWave heightAir tempDewpointWater temp
2016-Jun-29 03:33N 53°38' W 000°11'9 9.0
2016-Jun-29 02:33N 53°42' W 000°24'  
2016-Jun-26 08:13N 53°42' W 000°25'7 9.9
2016-Jun-26 07:33N 53°42' W 000°14'1110.6
2016-Jun-26 06:33N 53°36' E 000°00'338 8.4
2016-Jun-24 14:26N 57°60' E 006°17'8 8.7
2016-Jun-24 13:33N 58°06' E 006°26'9 8.5
2016-Jun-24 12:32N 58°11' E 006°38'3 0.1
2016-Jun-23 11:10N 58°13' E 006°42'5 8.3
2016-Jun-23 10:33N 58°15' E 006°33'10 9.5
2016-Jun-23 09:32N 58°17' E 006°15'11 7.7
2016-Jun-23 08:10N 58°22' E 005°58'20 7.6
2016-Jun-23 05:32N 58°36' E 005°29'8 7.9
2016-Jun-23 04:33N 58°42' E 005°22'8 7.8
2016-Jun-23 03:33N 58°50' E 005°18'8 8.5
2016-Jun-23 02:33N 58°58' E 005°18'8 7.9
2016-Jun-23 01:33N 59°06' E 005°22'10 0.6
2016-Jun-22 08:14N 59°13' E 005°37'7 9.7
2016-Jun-22 07:33N 59°08' E 005°29'8 8.5
2016-Jun-22 06:34N 59°01' E 005°20'1010.1
2016-Jun-22 05:33N 58°51' E 005°19'9 9.2
2016-Jun-22 04:33N 58°42' E 005°23'21 9.0
2016-Jun-22 02:10N 58°24' E 005°47'25 9.4
2016-Jun-21 23:32N 58°07' E 006°21'9 9.0
2016-Jun-21 22:33N 58°02' E 006°34'10 9.7
2016-Jun-21 21:33N 57°58' E 006°50'9 8.9
2016-Jun-21 20:33N 57°55' E 007°06'10 9.6
2016-Jun-21 19:33N 57°55' E 007°25'  
Track history (hours):
 
Tides and Currents Weather Stations Pressure Air Temp Water Temp Dewpoint Dewpoint Depression Visibility Wind Speed Wind Dir Waves Ship Positions

Plato

Last reported at 2016-Jun-29 03:33 UTC. Time now 2016-Jun-29 03:50 UTC.
Position N 53°38' W 000°11'.

Length 89 m; draft 3.1 m.

Type: Cargo ship. MMSI: 314189000.

Date/timePositionNaut miles runAvg speedWind from/ knotsBaromVisibWave heightAir tempDewpointWater temp
2016-Jun-29 03:33N 53°38' W 000°11'9 9.0
2016-Jun-29 02:33N 53°42' W 000°24'  
2016-Jun-26 08:13N 53°42' W 000°25'7 9.9
2016-Jun-26 07:33N 53°42' W 000°14'1110.6
2016-Jun-26 06:33N 53°36' E 000°00'338 8.4
2016-Jun-24 14:26N 57°60' E 006°17'8 8.7
2016-Jun-24 13:33N 58°06' E 006°26'9 8.5
2016-Jun-24 12:32N 58°11' E 006°38'3 0.1
2016-Jun-23 11:10N 58°13' E 006°42'5 8.3
2016-Jun-23 10:33N 58°15' E 006°33'10 9.5
2016-Jun-23 09:32N 58°17' E 006°15'11 7.7
2016-Jun-23 08:10N 58°22' E 005°58'20 7.6
2016-Jun-23 05:32N 58°36' E 005°29'8 7.9
2016-Jun-23 04:33N 58°42' E 005°22'8 7.8
2016-Jun-23 03:33N 58°50' E 005°18'8 8.5
2016-Jun-23 02:33N 58°58' E 005°18'8 7.9
2016-Jun-23 01:33N 59°06' E 005°22'10 0.6
2016-Jun-22 08:14N 59°13' E 005°37'7 9.7
2016-Jun-22 07:33N 59°08' E 005°29'8 8.5
2016-Jun-22 06:34N 59°01' E 005°20'1010.1
2016-Jun-22 05:33N 58°51' E 005°19'9 9.2
2016-Jun-22 04:33N 58°42' E 005°23'21 9.0
2016-Jun-22 02:10N 58°24' E 005°47'25 9.4
2016-Jun-21 23:32N 58°07' E 006°21'9 9.0
2016-Jun-21 22:33N 58°02' E 006°34'10 9.7
2016-Jun-21 21:33N 57°58' E 006°50'9 8.9
2016-Jun-21 20:33N 57°55' E 007°06'10 9.6
2016-Jun-21 19:33N 57°55' E 007°25'  

Dump ship's entire track history